createdAt,value
2017-09-26T00:01:53.085Z,35.93
2017-09-26T00:04:21.751Z,36.93
2017-09-26T00:06:49.559Z,37.10
2017-09-26T00:09:17.462Z,34.80
2017-09-26T00:11:45.263Z,35.87
2017-09-26T00:14:13.862Z,33.93
2017-09-26T00:16:42.446Z,35.43
2017-09-26T00:19:11.041Z,33.80
2017-09-26T00:21:38.853Z,39.13
2017-09-26T00:24:06.739Z,36.90
2017-09-26T00:26:34.560Z,36.77
2017-09-26T00:29:02.376Z,36.63
2017-09-26T00:31:31.006Z,35.50
2017-09-26T00:33:58.915Z,35.17
2017-09-26T00:36:26.795Z,33.33
2017-09-26T00:38:55.467Z,34.27
2017-09-26T00:41:23.372Z,33.60
2017-09-26T00:43:51.194Z,35.60
2017-09-26T00:46:19.016Z,34.07
2017-09-26T00:48:46.826Z,34.67
2017-09-26T00:51:14.725Z,33.40
2017-09-26T00:53:43.394Z,33.73
2017-09-26T00:56:11.198Z,33.57
2017-09-26T00:58:39.117Z,33.97
2017-09-26T01:01:12.452Z,36.00
2017-09-26T01:03:40.937Z,35.40
2017-09-26T01:06:09.695Z,33.40
2017-09-26T01:08:38.425Z,34.63
2017-09-26T01:11:06.363Z,35.23
2017-09-26T01:13:34.213Z,34.10
2017-09-26T01:16:02.803Z,33.27
2017-09-26T01:18:31.419Z,34.70
2017-09-26T01:20:59.389Z,35.70
2017-09-26T01:23:27.384Z,33.93
2017-09-26T01:25:55.310Z,34.80
2017-09-26T01:28:23.195Z,37.57
2017-09-26T01:30:51.048Z,35.53
2017-09-26T01:33:18.894Z,33.93
2017-09-26T01:35:47.521Z,33.33
2017-09-26T01:38:15.353Z,32.27
2017-09-26T01:43:46.959Z,35.60
2017-09-26T01:46:14.871Z,38.50
2017-09-26T01:48:44.128Z,41.90
2017-09-26T01:51:12.033Z,40.37
2017-09-26T01:53:40.751Z,39.30
2017-09-26T01:56:11.291Z,38.67
2017-09-26T01:58:54.060Z,38.90
2017-09-26T02:01:21.988Z,38.77
2017-09-26T02:03:49.859Z,41.27
2017-09-26T02:06:17.717Z,40.40
2017-09-26T02:08:45.591Z,43.33
2017-09-26T02:11:13.441Z,45.00
2017-09-26T02:13:41.335Z,47.23
2017-09-26T02:16:09.162Z,44.90
2017-09-26T02:18:37.002Z,45.33
2017-09-26T02:21:05.682Z,44.50
2017-09-26T02:23:34.371Z,49.33
2017-09-26T02:26:03.004Z,45.77
2017-09-26T02:28:30.842Z,44.87
2017-09-26T02:30:59.460Z,43.57
2017-09-26T02:33:27.283Z,44.70
2017-09-26T02:35:55.923Z,46.20
2017-09-26T02:38:23.804Z,47.67
2017-09-26T02:40:51.650Z,49.90
2017-09-26T02:43:19.484Z,46.80
2017-09-26T02:45:47.403Z,44.53
2017-09-26T02:48:15.276Z,45.67
2017-09-26T02:50:43.223Z,45.90
2017-09-26T02:53:11.072Z,44.50
2017-09-26T02:55:38.960Z,48.23
2017-09-26T02:58:06.859Z,45.40
2017-09-26T03:00:35.542Z,44.30
2017-09-26T03:03:04.167Z,45.50
2017-09-26T03:05:32.033Z,46.23
2017-09-26T03:07:59.912Z,45.43
2017-09-26T03:10:27.800Z,43.37
2017-09-26T03:12:55.670Z,43.00
2017-09-26T03:15:24.408Z,44.67
2017-09-26T03:17:52.276Z,43.40
2017-09-26T03:20:20.115Z,41.50
2017-09-26T03:22:48.701Z,40.47
2017-09-26T03:25:17.335Z,45.80
2017-09-26T03:27:45.236Z,44.93
2017-09-26T03:30:13.831Z,44.90
2017-09-26T03:32:42.445Z,45.87
2017-09-26T03:35:10.420Z,47.70
2017-09-26T03:37:38.363Z,45.70
2017-09-26T03:40:07.005Z,43.93
2017-09-26T03:42:34.848Z,45.23
2017-09-26T03:45:02.709Z,49.00
2017-09-26T03:47:30.568Z,44.50
2017-09-26T03:49:58.467Z,45.60
2017-09-26T03:52:26.356Z,47.27
2017-09-26T03:54:54.186Z,42.80
2017-09-26T03:57:22.078Z,44.60
2017-09-26T03:59:49.979Z,42.90
2017-09-26T04:02:18.696Z,44.17
2017-09-26T04:04:46.606Z,41.27
2017-09-26T04:07:14.568Z,41.30
2017-09-26T04:09:42.444Z,43.27
2017-09-26T04:12:10.369Z,45.43
2017-09-26T04:14:38.336Z,46.07
2017-09-26T04:17:06.259Z,43.97
2017-09-26T04:19:34.877Z,45.30
2017-09-26T04:22:02.749Z,46.75
2017-09-26T04:24:30.614Z,44.20
2017-09-26T04:26:58.455Z,44.67
2017-09-26T04:29:27.090Z,45.20
2017-09-26T04:31:54.976Z,43.20
2017-09-26T04:34:22.915Z,46.20
2017-09-26T04:36:50.863Z,44.73
2017-09-26T04:39:18.719Z,42.57
2017-09-26T04:41:46.589Z,45.10
2017-09-26T04:44:14.408Z,43.10
2017-09-26T04:46:42.244Z,43.03
2017-09-26T04:49:10.128Z,45.10
2017-09-26T04:51:37.984Z,43.30
2017-09-26T04:54:05.864Z,41.60
2017-09-26T04:56:33.784Z,40.07
2017-09-26T04:59:01.636Z,41.33
2017-09-26T05:01:30.340Z,39.70
2017-09-26T05:03:58.176Z,39.73
2017-09-26T05:06:26.910Z,38.07
2017-09-26T05:08:54.770Z,38.40
2017-09-26T05:11:22.608Z,38.73
2017-09-26T05:13:50.502Z,39.13
2017-09-26T05:16:18.416Z,38.90
2017-09-26T05:18:47.088Z,38.63
2017-09-26T05:21:15.028Z,38.70
2017-09-26T05:23:42.988Z,41.50
2017-09-26T05:26:10.871Z,41.13
2017-09-26T05:28:38.722Z,41.30
2017-09-26T05:31:06.571Z,41.53
2017-09-26T05:33:34.408Z,42.30
2017-09-26T05:36:03.041Z,40.33
2017-09-26T05:38:30.987Z,43.73
2017-09-26T05:40:58.881Z,42.97
2017-09-26T05:43:26.692Z,41.73
2017-09-26T05:45:54.549Z,43.03
2017-09-26T05:48:22.406Z,44.13
2017-09-26T05:50:50.276Z,45.73
2017-09-26T05:53:18.137Z,45.13
2017-09-26T05:55:46.006Z,44.58
2017-09-26T05:58:13.826Z,43.13
2017-09-26T06:00:41.786Z,40.07
2017-09-26T06:03:09.721Z,42.40
2017-09-26T06:05:37.679Z,42.40
2017-09-26T06:08:05.520Z,40.60
2017-09-26T06:10:33.339Z,43.87
2017-09-26T06:13:01.953Z,32.50
2017-09-26T06:15:29.783Z,33.20
2017-09-26T06:17:58.404Z,32.13
2017-09-26T06:20:26.277Z,34.17
2017-09-26T06:22:54.185Z,32.53
2017-09-26T06:25:22.068Z,33.27
2017-09-26T06:27:50.750Z,30.53
2017-09-26T06:30:19.412Z,33.20
2017-09-26T06:32:47.296Z,33.23
2017-09-26T06:35:15.151Z,33.53
2017-09-26T06:37:43.053Z,28.83
2017-09-26T06:40:10.976Z,28.07
2017-09-26T06:42:38.879Z,27.17
2017-09-26T06:45:07.600Z,24.73
2017-09-26T06:47:35.485Z,24.27
2017-09-26T06:50:03.339Z,21.67
2017-09-26T06:52:31.148Z,23.63
2017-09-26T06:54:59.014Z,20.70
2017-09-26T06:57:26.937Z,18.07
2017-09-26T06:59:54.846Z,16.27
2017-09-26T07:02:22.740Z,13.73
2017-09-26T07:04:50.604Z,14.23
2017-09-26T07:07:18.469Z,13.50
2017-09-26T07:09:47.147Z,14.43
2017-09-26T07:12:15.006Z,14.50
2017-09-26T07:14:43.629Z,15.07
2017-09-26T07:17:11.591Z,16.60
2017-09-26T07:19:39.454Z,15.90
2017-09-26T07:22:07.302Z,15.57
2017-09-26T07:24:35.963Z,18.07
2017-09-26T07:27:03.859Z,18.70
2017-09-26T07:29:32.496Z,16.93
2017-09-26T07:32:00.345Z,18.13
2017-09-26T07:34:29.059Z,16.20
2017-09-26T07:36:56.892Z,16.30
2017-09-26T07:39:24.762Z,16.70
2017-09-26T07:41:52.622Z,17.50
2017-09-26T07:44:20.480Z,16.10
2017-09-26T07:46:48.369Z,18.87
2017-09-26T07:49:16.244Z,18.83
2017-09-26T07:51:44.120Z,19.70
2017-09-26T07:54:11.935Z,17.53
2017-09-26T07:56:39.859Z,16.20
2017-09-26T07:59:07.663Z,15.27
2017-09-26T08:01:35.501Z,13.10
2017-09-26T08:04:03.901Z,11.80
2017-09-26T08:06:33.037Z,11.13
2017-09-26T08:09:01.407Z,9.90
2017-09-26T08:11:29.345Z,10.17
2017-09-26T08:13:57.994Z,11.70
2017-09-26T08:16:25.860Z,10.53
2017-09-26T08:18:53.725Z,14.30
2017-09-26T08:21:21.602Z,11.27
2017-09-26T08:23:49.518Z,17.53
2017-09-26T08:26:17.393Z,13.70
2017-09-26T08:28:45.294Z,13.20
2017-09-26T08:31:13.132Z,11.47
2017-09-26T08:33:40.979Z,12.73
2017-09-26T08:36:08.833Z,12.07
2017-09-26T08:38:36.713Z,11.10
2017-09-26T08:41:04.573Z,16.90
2017-09-26T08:43:32.438Z,12.37
2017-09-26T08:46:00.374Z,11.53
2017-09-26T08:48:28.287Z,9.93
2017-09-26T08:50:57.056Z,11.33
2017-09-26T08:53:24.917Z,8.87
2017-09-26T08:55:52.797Z,9.70
2017-09-26T08:58:20.747Z,10.33
2017-09-26T09:00:48.580Z,10.30
2017-09-26T09:03:16.488Z,10.10
2017-09-26T09:05:44.329Z,12.87
2017-09-26T09:08:12.132Z,10.97
2017-09-26T09:10:39.980Z,11.73
2017-09-26T09:13:08.610Z,11.30
2017-09-26T09:15:36.471Z,10.80
2017-09-26T09:18:04.379Z,10.23
2017-09-26T09:20:33.005Z,11.27
2017-09-26T09:23:00.834Z,11.90
2017-09-26T09:25:29.529Z,10.60
2017-09-26T09:27:58.159Z,12.40
2017-09-26T09:30:26.033Z,11.40
2017-09-26T09:32:53.881Z,11.63
2017-09-26T09:35:21.791Z,11.77
2017-09-26T09:37:49.610Z,10.07
2017-09-26T09:40:17.496Z,10.03
2017-09-26T09:42:45.332Z,10.20
2017-09-26T09:45:13.238Z,11.70
2017-09-26T09:47:41.952Z,9.70
2017-09-26T09:50:10.612Z,9.13
2017-09-26T09:52:38.429Z,10.30
2017-09-26T09:55:06.243Z,9.00
2017-09-26T09:57:34.073Z,9.33
2017-09-26T10:00:02.209Z,10.47
2017-09-26T10:02:30.797Z,8.93
2017-09-26T10:04:59.426Z,8.83
2017-09-26T10:07:27.278Z,9.90
2017-09-26T10:09:55.208Z,7.80
2017-09-26T10:12:23.878Z,9.37
2017-09-26T10:14:51.773Z,8.20
2017-09-26T10:17:19.649Z,10.07
2017-09-26T10:19:47.598Z,9.10
2017-09-26T10:22:15.928Z,9.20
2017-09-26T10:24:43.880Z,10.40
2017-09-26T10:27:11.723Z,8.30
2017-09-26T10:29:40.320Z,8.53
2017-09-26T10:32:08.222Z,8.90
2017-09-26T10:34:36.119Z,8.73
2017-09-26T10:37:04.816Z,8.50
2017-09-26T10:39:33.423Z,8.27
2017-09-26T10:42:01.367Z,8.80
2017-09-26T10:44:29.988Z,8.70
2017-09-26T10:46:57.803Z,8.13
2017-09-26T10:49:25.722Z,9.40
2017-09-26T10:51:53.580Z,9.47
2017-09-26T10:54:21.521Z,9.23
2017-09-26T10:56:50.186Z,9.03
2017-09-26T10:59:18.011Z,8.87
2017-09-26T11:01:45.888Z,8.77
2017-09-26T11:04:13.832Z,8.37
2017-09-26T11:06:41.676Z,7.37
2017-09-26T11:09:10.260Z,8.80
2017-09-26T11:11:38.976Z,9.10
2017-09-26T11:14:06.870Z,8.50
2017-09-26T11:16:34.781Z,8.50
2017-09-26T11:19:03.475Z,8.47
2017-09-26T11:21:31.458Z,7.77
2017-09-26T11:23:59.380Z,7.80
2017-09-26T11:26:27.271Z,8.07
2017-09-26T11:28:55.942Z,7.67
2017-09-26T11:31:24.604Z,9.13
2017-09-26T11:33:52.500Z,8.53
2017-09-26T11:36:21.173Z,8.53
2017-09-26T11:38:49.875Z,8.25
2017-09-26T11:41:18.528Z,7.90
2017-09-26T11:43:46.453Z,9.47
2017-09-26T11:46:14.269Z,8.80
2017-09-26T11:48:42.125Z,8.13
2017-09-26T11:51:10.031Z,8.77
2017-09-26T11:53:37.914Z,8.07
2017-09-26T11:56:05.760Z,8.27
2017-09-26T11:58:34.462Z,9.10
2017-09-26T12:01:02.438Z,9.93
2017-09-26T12:03:30.323Z,11.13
2017-09-26T12:05:58.206Z,9.50
2017-09-26T12:08:26.065Z,8.93
2017-09-26T12:10:53.948Z,9.30
2017-09-26T12:13:27.454Z,8.23
2017-09-26T12:15:55.396Z,8.93
2017-09-26T12:18:23.310Z,8.17
2017-09-26T12:20:51.968Z,8.97
2017-09-26T12:23:19.808Z,10.63
2017-09-26T12:25:47.685Z,10.50
2017-09-26T12:28:18.372Z,8.87
2017-09-26T12:30:46.256Z,8.03
2017-09-26T12:33:14.175Z,8.40
2017-09-26T12:35:42.877Z,10.23
2017-09-26T12:38:11.829Z,11.37
2017-09-26T12:40:39.676Z,12.77
2017-09-26T12:43:07.511Z,10.00
2017-09-26T12:45:36.196Z,8.73
2017-09-26T12:48:04.879Z,9.00
2017-09-26T12:50:34.857Z,9.13
2017-09-26T12:53:02.918Z,9.20
2017-09-26T12:55:30.863Z,9.27
2017-09-26T12:57:58.836Z,9.73
2017-09-26T13:00:26.708Z,10.00
2017-09-26T13:02:54.583Z,9.50
2017-09-26T13:05:22.452Z,8.83
2017-09-26T13:07:50.333Z,8.93
2017-09-26T13:10:18.298Z,8.97
2017-09-26T13:12:46.976Z,8.50
2017-09-26T13:15:14.956Z,8.77
2017-09-26T13:17:42.841Z,8.87
2017-09-26T13:20:11.545Z,9.67
2017-09-26T13:22:40.152Z,9.40
2017-09-26T13:25:08.271Z,8.23
2017-09-26T13:27:36.279Z,9.67
2017-09-26T13:30:04.163Z,7.90
2017-09-26T13:32:32.154Z,8.50
2017-09-26T13:35:00.243Z,10.30
2017-09-26T13:37:28.905Z,9.13
2017-09-26T13:39:56.745Z,9.40
2017-09-26T13:42:24.649Z,9.00
2017-09-26T13:44:52.641Z,8.23
2017-09-26T13:47:20.514Z,9.07
2017-09-26T13:49:49.267Z,9.30
2017-09-26T13:52:24.953Z,9.90
2017-09-26T13:54:53.001Z,10.60
2017-09-26T13:57:20.983Z,8.80
2017-09-26T13:59:52.729Z,10.50
2017-09-26T14:02:21.883Z,8.30
2017-09-26T14:04:49.765Z,8.73
2017-09-26T14:07:18.507Z,9.07
2017-09-26T14:09:46.420Z,9.70
2017-09-26T14:12:14.335Z,9.73
2017-09-26T14:14:42.940Z,9.60
2017-09-26T14:17:11.591Z,8.30
2017-09-26T14:19:39.448Z,9.40
2017-09-26T14:22:07.265Z,9.90
2017-09-26T14:24:35.100Z,9.37
2017-09-26T14:27:04.040Z,11.17
2017-09-26T14:29:31.929Z,11.77
2017-09-26T14:31:59.930Z,8.50
2017-09-26T14:34:28.616Z,9.80
2017-09-26T14:36:57.388Z,10.40
2017-09-26T14:39:26.076Z,10.23
2017-09-26T14:41:54.817Z,10.27
2017-09-26T14:44:23.517Z,10.07
2017-09-26T14:46:51.422Z,10.50
2017-09-26T14:49:20.062Z,10.63
2017-09-26T14:51:47.892Z,9.93
2017-09-26T14:54:16.746Z,10.97
2017-09-26T14:56:44.583Z,9.60
2017-09-26T14:59:12.486Z,12.00
2017-09-26T15:01:40.864Z,10.90
2017-09-26T15:04:09.557Z,10.70
2017-09-26T15:06:37.407Z,10.37
2017-09-26T15:09:05.327Z,11.23
2017-09-26T15:11:33.215Z,11.07
2017-09-26T15:14:01.065Z,9.77
2017-09-26T15:16:28.925Z,10.27
2017-09-26T15:18:56.831Z,10.40
2017-09-26T15:21:24.676Z,11.30
2017-09-26T15:23:52.520Z,10.67
2017-09-26T15:26:20.397Z,10.30
2017-09-26T15:28:50.061Z,11.43
2017-09-26T15:31:18.738Z,11.30
2017-09-26T15:33:46.750Z,10.90
2017-09-26T15:36:14.605Z,11.63
2017-09-26T15:38:43.193Z,10.20
2017-09-26T15:41:11.809Z,11.00
2017-09-26T15:43:39.621Z,9.73
2017-09-26T15:46:07.532Z,11.03
2017-09-26T15:48:35.399Z,10.97
2017-09-26T15:51:03.977Z,9.70
2017-09-26T15:53:31.951Z,11.80
2017-09-26T15:55:59.849Z,10.40
2017-09-26T15:58:27.833Z,10.43
2017-09-26T16:00:56.460Z,11.23
2017-09-26T16:03:24.318Z,10.53
2017-09-26T16:05:52.158Z,10.63
2017-09-26T16:08:20.003Z,9.27
2017-09-26T16:10:47.975Z,9.50
2017-09-26T16:13:15.887Z,9.97
2017-09-26T16:15:43.725Z,9.90
2017-09-26T16:18:11.585Z,10.60
2017-09-26T16:20:39.526Z,10.10
2017-09-26T16:23:07.345Z,9.93
2017-09-26T16:25:35.985Z,10.90
2017-09-26T16:28:03.830Z,10.60
2017-09-26T16:30:31.729Z,10.70
2017-09-26T16:32:59.633Z,9.53
2017-09-26T16:35:28.435Z,10.43
2017-09-26T16:37:56.262Z,9.90
2017-09-26T16:40:24.113Z,11.27
2017-09-26T16:42:52.015Z,10.50
2017-09-26T16:45:20.651Z,10.60
2017-09-26T16:47:48.484Z,11.30
2017-09-26T16:50:16.390Z,9.93
2017-09-26T16:52:44.244Z,9.47
2017-09-26T16:55:12.137Z,9.90
2017-09-26T16:57:39.990Z,11.93
2017-09-26T17:00:07.947Z,10.43
2017-09-26T17:02:36.070Z,10.53
2017-09-26T17:05:04.895Z,10.73
2017-09-26T17:07:32.947Z,10.40
2017-09-26T17:10:00.777Z,11.37
2017-09-26T17:12:36.599Z,11.90
2017-09-26T17:15:04.522Z,12.23
2017-09-26T17:17:33.132Z,11.40
2017-09-26T17:20:00.978Z,13.90
2017-09-26T17:22:28.887Z,12.70
2017-09-26T17:24:56.764Z,11.43
2017-09-26T17:27:24.632Z,11.70
2017-09-26T17:29:52.566Z,12.20
2017-09-26T17:32:20.461Z,14.50
2017-09-26T17:34:48.449Z,13.40
2017-09-26T17:37:16.523Z,14.70
2017-09-26T17:39:44.493Z,13.53
2017-09-26T17:42:12.341Z,15.10
2017-09-26T17:44:40.448Z,14.77
2017-09-26T17:47:08.332Z,13.10
2017-09-26T17:49:36.924Z,13.67
2017-09-26T17:52:05.612Z,12.50
2017-09-26T17:54:33.455Z,12.43
2017-09-26T17:57:01.429Z,13.03
2017-09-26T17:59:29.464Z,11.20
2017-09-26T18:01:57.345Z,12.37
2017-09-26T18:04:26.046Z,12.43
2017-09-26T18:06:54.711Z,13.37
2017-09-26T18:09:23.409Z,13.73
2017-09-26T18:11:52.061Z,12.83
2017-09-26T18:14:20.019Z,12.97
2017-09-26T18:16:47.952Z,12.83
2017-09-26T18:19:15.856Z,13.87
2017-09-26T18:21:43.724Z,23.40
2017-09-26T18:24:11.664Z,24.27
2017-09-26T18:26:39.584Z,25.90
2017-09-26T18:29:07.520Z,21.33
2017-09-26T18:31:35.425Z,19.70
2017-09-26T18:34:03.281Z,18.20
2017-09-26T18:36:31.215Z,14.60
2017-09-26T18:38:59.323Z,16.73
2017-09-26T18:41:28.105Z,20.40
2017-09-26T18:43:56.783Z,22.10
2017-09-26T18:46:24.660Z,22.07
2017-09-26T18:48:52.570Z,17.10
2017-09-26T18:51:20.405Z,15.70
2017-09-26T18:53:49.068Z,14.13
2017-09-26T18:56:16.914Z,14.00
2017-09-26T18:58:44.879Z,16.60
2017-09-26T19:01:12.706Z,17.43
2017-09-26T19:03:41.423Z,18.40
2017-09-26T19:06:09.332Z,16.90
2017-09-26T19:08:37.410Z,14.10
2017-09-26T19:11:06.098Z,13.73
2017-09-26T19:13:33.964Z,12.67
2017-09-26T19:16:01.958Z,13.73
2017-09-26T19:18:29.836Z,13.30
2017-09-26T19:20:57.705Z,12.83
2017-09-26T19:23:25.565Z,12.37
2017-09-26T19:25:53.452Z,12.13
2017-09-26T19:28:21.318Z,17.10
2017-09-26T19:30:50.580Z,20.10
2017-09-26T19:33:18.522Z,17.07
2017-09-26T19:35:46.406Z,16.30
2017-09-26T19:38:15.081Z,12.10
2017-09-26T19:40:43.030Z,13.00
2017-09-26T19:43:11.423Z,11.77
2017-09-26T19:45:40.096Z,12.03
2017-09-26T19:48:07.962Z,12.10
2017-09-26T19:50:36.050Z,11.00
2017-09-26T19:53:04.881Z,10.77
2017-09-26T19:55:32.790Z,11.40
2017-09-26T19:58:01.563Z,9.57
2017-09-26T20:00:29.457Z,10.90
2017-09-26T20:02:57.324Z,10.03
2017-09-26T20:05:25.213Z,10.57
2017-09-26T20:07:53.992Z,11.80
2017-09-26T20:10:22.648Z,11.47
2017-09-26T20:12:50.733Z,10.20
2017-09-26T20:15:18.605Z,10.70
2017-09-26T20:17:47.340Z,12.43
2017-09-26T20:20:15.356Z,13.10
2017-09-26T20:22:44.125Z,13.07
2017-09-26T20:25:12.106Z,13.80
2017-09-26T20:27:39.950Z,12.07
2017-09-26T20:30:07.788Z,12.43
2017-09-26T20:32:35.711Z,12.83
2017-09-26T20:35:03.646Z,12.43
2017-09-26T20:37:31.629Z,11.73
2017-09-26T20:39:59.576Z,13.00
2017-09-26T20:42:27.416Z,13.40
2017-09-26T20:44:56.056Z,13.20
2017-09-26T20:47:24.014Z,12.50
2017-09-26T20:49:51.888Z,13.17
2017-09-26T20:52:21.064Z,12.73
2017-09-26T20:54:49.027Z,13.30
2017-09-26T20:57:16.953Z,14.00
2017-09-26T20:59:45.567Z,11.97
2017-09-26T21:02:13.469Z,12.53
2017-09-26T21:04:41.356Z,12.40
2017-09-26T21:07:09.276Z,12.97
2017-09-26T21:09:37.153Z,12.90
2017-09-26T21:12:05.026Z,12.90
2017-09-26T21:14:32.939Z,12.00
2017-09-26T21:17:01.666Z,12.77
2017-09-26T21:19:29.537Z,11.40
2017-09-26T21:21:57.389Z,13.30
2017-09-26T21:24:25.260Z,13.00
2017-09-26T21:26:53.108Z,14.00
2017-09-26T21:29:20.956Z,14.27
2017-09-26T21:31:49.555Z,14.50
2017-09-26T21:34:17.620Z,14.20
2017-09-26T21:36:45.509Z,13.87
2017-09-26T21:39:13.458Z,13.37
2017-09-26T21:41:41.435Z,14.63
2017-09-26T21:44:09.286Z,14.13
2017-09-26T21:46:38.031Z,13.97
2017-09-26T21:49:05.877Z,13.47
2017-09-26T21:51:33.700Z,13.43
2017-09-26T21:54:02.373Z,13.70
2017-09-26T21:56:30.261Z,12.90
2017-09-26T21:58:58.880Z,13.40
2017-09-26T22:01:26.772Z,12.87
2017-09-26T22:03:54.634Z,12.87
2017-09-26T22:06:22.652Z,12.20
2017-09-26T22:08:51.549Z,13.27
2017-09-26T22:11:19.389Z,13.70
2017-09-26T22:13:48.003Z,13.73
2017-09-26T22:16:15.895Z,12.27
2017-09-26T22:18:43.741Z,13.73
2017-09-26T22:21:11.650Z,12.80
2017-09-26T22:23:39.522Z,13.50
2017-09-26T22:26:07.392Z,13.57
2017-09-26T22:28:35.291Z,14.47
2017-09-26T22:31:03.890Z,14.00
2017-09-26T22:33:31.733Z,13.50
2017-09-26T22:36:00.353Z,13.53
2017-09-26T22:38:28.188Z,13.90
2017-09-26T22:40:56.771Z,12.70
2017-09-26T22:43:25.405Z,14.10
2017-09-26T22:45:53.269Z,13.70
2017-09-26T22:48:21.101Z,12.63
2017-09-26T22:50:49.036Z,11.60
2017-09-26T22:53:17.688Z,12.20
2017-09-26T22:55:45.541Z,11.67
2017-09-26T22:58:13.426Z,12.40
2017-09-26T23:00:41.299Z,11.80
2017-09-26T23:03:09.152Z,12.57
2017-09-26T23:05:37.137Z,12.77
2017-09-26T23:08:05.013Z,13.27
2017-09-26T23:10:32.980Z,13.00
2017-09-26T23:13:00.890Z,13.00
2017-09-26T23:15:28.856Z,10.87
2017-09-26T23:17:56.740Z,11.57
2017-09-26T23:20:24.609Z,11.33
2017-09-26T23:22:52.465Z,10.80
2017-09-26T23:25:20.307Z,11.70
2017-09-26T23:27:48.953Z,11.20
2017-09-26T23:30:16.793Z,11.30
2017-09-26T23:32:44.691Z,11.23
2017-09-26T23:35:12.513Z,10.57
2017-09-26T23:37:40.366Z,11.70
2017-09-26T23:40:09.056Z,10.90
2017-09-26T23:42:36.904Z,10.67
2017-09-26T23:45:05.528Z,10.13
2017-09-26T23:47:33.391Z,10.50
2017-09-26T23:50:01.249Z,10.90
2017-09-26T23:52:29.176Z,11.07
2017-09-26T23:54:57.032Z,11.17
2017-09-26T23:57:24.988Z,11.40
2017-09-26T23:59:52.812Z,10.43
